sensor_id;sensor_type;location;lat;lon;timestamp;P1;durP1;ratioP1;P2;durP2;ratioP2
14052;SDS011;7101;51.600;7.310;2024-03-08T00:00:14;24.42;;;11.15;;
14052;SDS011;7101;51.600;7.310;2024-03-08T00:02:45;20.13;;;10.80;;
14052;SDS011;7101;51.600;7.310;2024-03-08T00:05:12;22.25;;;10.90;;
14052;SDS011;7101;51.600;7.310;2024-03-08T00:07:40;18.48;;;10.57;;
14052;SDS011;7101;51.600;7.310;2024-03-08T00:10:09;20.63;;;11.35;;
14052;SDS011;7101;51.600;7.310;2024-03-08T00:12:37;21.13;;;11.75;;
14052;SDS011;7101;51.600;7.310;2024-03-08T00:15:04;21.33;;;11.77;;
14052;SDS011;7101;51.600;7.310;2024-03-08T00:17:32;19.30;;;11.77;;
14052;SDS011;7101;51.600;7.310;2024-03-08T00:20:01;21.75;;;11.90;;
14052;SDS011;7101;51.600;7.310;2024-03-08T00:22:28;23.10;;;11.35;;
14052;SDS011;7101;51.600;7.310;2024-03-08T00:24:55;24.33;;;12.25;;
14052;SDS011;7101;51.600;7.310;2024-03-08T00:27:23;19.15;;;11.25;;
14052;SDS011;7101;51.600;7.310;2024-03-08T00:29:50;20.65;;;10.93;;
14052;SDS011;7101;51.600;7.310;2024-03-08T00:32:17;22.23;;;11.23;;
14052;SDS011;7101;51.600;7.310;2024-03-08T00:34:44;19.98;;;10.82;;
14052;SDS011;7101;51.600;7.310;2024-03-08T00:37:13;20.05;;;11.63;;
14052;SDS011;7101;51.600;7.310;2024-03-08T00:39:40;22.45;;;11.02;;
14052;SDS011;7101;51.600;7.310;2024-03-08T00:42:08;21.10;;;11.82;;
14052;SDS011;7101;51.600;7.310;2024-03-08T00:44:34;23.45;;;12.00;;
14052;SDS011;7101;51.600;7.310;2024-03-08T00:47:02;24.33;;;11.77;;
14052;SDS011;7101;51.600;7.310;2024-03-08T00:49:29;23.17;;;12.45;;
14052;SDS011;7101;51.600;7.310;2024-03-08T00:51:57;22.13;;;12.18;;
14052;SDS011;7101;51.600;7.310;2024-03-08T00:54:25;21.10;;;12.30;;
14052;SDS011;7101;51.600;7.310;2024-03-08T00:56:53;21.70;;;12.55;;
14052;SDS011;7101;51.600;7.310;2024-03-08T00:59:20;24.35;;;14.10;;
14052;SDS011;7101;51.600;7.310;2024-03-08T01:01:47;26.30;;;14.25;;
14052;SDS011;7101;51.600;7.310;2024-03-08T01:04:14;24.13;;;13.25;;
14052;SDS011;7101;51.600;7.310;2024-03-08T01:06:40;25.73;;;13.35;;
14052;SDS011;7101;51.600;7.310;2024-03-08T01:09:07;25.95;;;12.90;;
14052;SDS011;7101;51.600;7.310;2024-03-08T01:11:35;24.20;;;13.20;;
14052;SDS011;7101;51.600;7.310;2024-03-08T01:14:03;22.40;;;12.57;;
14052;SDS011;7101;51.600;7.310;2024-03-08T01:16:30;27.50;;;12.98;;
14052;SDS011;7101;51.600;7.310;2024-03-08T01:19:00;23.08;;;12.98;;
14052;SDS011;7101;51.600;7.310;2024-03-08T01:21:28;26.52;;;13.48;;
14052;SDS011;7101;51.600;7.310;2024-03-08T01:23:56;26.67;;;13.55;;
14052;SDS011;7101;51.600;7.310;2024-03-08T01:26:24;26.65;;;12.50;;
14052;SDS011;7101;51.600;7.310;2024-03-08T01:28:53;20.98;;;12.27;;
14052;SDS011;7101;51.600;7.310;2024-03-08T01:31:20;22.65;;;12.63;;
14052;SDS011;7101;51.600;7.310;2024-03-08T01:33:48;23.73;;;12.13;;
14052;SDS011;7101;51.600;7.310;2024-03-08T01:36:15;24.25;;;12.48;;
14052;SDS011;7101;51.600;7.310;2024-03-08T01:38:44;25.65;;;12.18;;
14052;SDS011;7101;51.600;7.310;2024-03-08T01:41:11;29.83;;;12.45;;
14052;SDS011;7101;51.600;7.310;2024-03-08T01:43:39;21.27;;;11.50;;
14052;SDS011;7101;51.600;7.310;2024-03-08T01:46:07;23.88;;;11.43;;
14052;SDS011;7101;51.600;7.310;2024-03-08T01:48:38;21.90;;;12.05;;
14052;SDS011;7101;51.600;7.310;2024-03-08T01:51:06;21.95;;;11.10;;
14052;SDS011;7101;51.600;7.310;2024-03-08T01:53:33;25.15;;;11.32;;
14052;SDS011;7101;51.600;7.310;2024-03-08T01:56:00;21.75;;;11.40;;
14052;SDS011;7101;51.600;7.310;2024-03-08T01:58:29;21.00;;;11.50;;
14052;SDS011;7101;51.600;7.310;2024-03-08T02:00:58;20.30;;;10.65;;
14052;SDS011;7101;51.600;7.310;2024-03-08T02:03:26;21.83;;;12.20;;
14052;SDS011;7101;51.600;7.310;2024-03-08T02:05:53;23.48;;;12.25;;
14052;SDS011;7101;51.600;7.310;2024-03-08T02:08:20;24.35;;;12.35;;
14052;SDS011;7101;51.600;7.310;2024-03-08T02:10:47;24.48;;;12.57;;
14052;SDS011;7101;51.600;7.310;2024-03-08T02:13:14;21.50;;;11.82;;
14052;SDS011;7101;51.600;7.310;2024-03-08T02:15:51;22.27;;;12.38;;
14052;SDS011;7101;51.600;7.310;2024-03-08T02:18:18;27.92;;;12.32;;
14052;SDS011;7101;51.600;7.310;2024-03-08T02:20:46;27.48;;;12.63;;
14052;SDS011;7101;51.600;7.310;2024-03-08T02:23:14;21.40;;;11.23;;
14052;SDS011;7101;51.600;7.310;2024-03-08T02:25:41;22.85;;;12.63;;
14052;SDS011;7101;51.600;7.310;2024-03-08T02:28:09;24.27;;;12.68;;
14052;SDS011;7101;51.600;7.310;2024-03-08T02:30:37;27.60;;;13.98;;
14052;SDS011;7101;51.600;7.310;2024-03-08T02:33:05;24.08;;;11.70;;
14052;SDS011;7101;51.600;7.310;2024-03-08T02:35:32;26.02;;;12.82;;
14052;SDS011;7101;51.600;7.310;2024-03-08T02:38:00;25.73;;;12.63;;
14052;SDS011;7101;51.600;7.310;2024-03-08T02:40:28;27.17;;;13.10;;
14052;SDS011;7101;51.600;7.310;2024-03-08T02:42:56;25.27;;;13.40;;
14052;SDS011;7101;51.600;7.310;2024-03-08T02:45:23;25.00;;;13.30;;
14052;SDS011;7101;51.600;7.310;2024-03-08T02:47:50;28.67;;;12.65;;
14052;SDS011;7101;51.600;7.310;2024-03-08T02:50:18;24.05;;;12.77;;
14052;SDS011;7101;51.600;7.310;2024-03-08T02:52:45;25.70;;;12.80;;
14052;SDS011;7101;51.600;7.310;2024-03-08T02:55:14;27.27;;;12.88;;
14052;SDS011;7101;51.600;7.310;2024-03-08T02:57:41;26.63;;;12.98;;
14052;SDS011;7101;51.600;7.310;2024-03-08T03:00:09;24.95;;;12.52;;
14052;SDS011;7101;51.600;7.310;2024-03-08T03:02:38;26.35;;;12.38;;
14052;SDS011;7101;51.600;7.310;2024-03-08T03:05:05;26.15;;;12.82;;
14052;SDS011;7101;51.600;7.310;2024-03-08T03:07:34;22.48;;;12.57;;
14052;SDS011;7101;51.600;7.310;2024-03-08T03:10:02;26.67;;;12.30;;
14052;SDS011;7101;51.600;7.310;2024-03-08T03:12:31;25.35;;;12.23;;
14052;SDS011;7101;51.600;7.310;2024-03-08T03:14:59;20.23;;;11.07;;
14052;SDS011;7101;51.600;7.310;2024-03-08T03:17:26;24.67;;;12.63;;
14052;SDS011;7101;51.600;7.310;2024-03-08T03:19:54;23.00;;;11.90;;
14052;SDS011;7101;51.600;7.310;2024-03-08T03:22:21;22.85;;;11.95;;
14052;SDS011;7101;51.600;7.310;2024-03-08T03:24:48;26.73;;;12.80;;
14052;SDS011;7101;51.600;7.310;2024-03-08T03:27:16;27.67;;;12.05;;
14052;SDS011;7101;51.600;7.310;2024-03-08T03:29:46;26.70;;;13.57;;
14052;SDS011;7101;51.600;7.310;2024-03-08T03:32:14;27.77;;;13.98;;
14052;SDS011;7101;51.600;7.310;2024-03-08T03:34:44;24.05;;;12.98;;
14052;SDS011;7101;51.600;7.310;2024-03-08T03:37:11;26.15;;;13.00;;
14052;SDS011;7101;51.600;7.310;2024-03-08T03:39:38;27.48;;;13.52;;
14052;SDS011;7101;51.600;7.310;2024-03-08T03:42:13;24.17;;;13.07;;
14052;SDS011;7101;51.600;7.310;2024-03-08T03:44:41;29.58;;;13.50;;
14052;SDS011;7101;51.600;7.310;2024-03-08T03:47:11;26.27;;;13.10;;
14052;SDS011;7101;51.600;7.310;2024-03-08T03:49:38;24.77;;;12.07;;
14052;SDS011;7101;51.600;7.310;2024-03-08T03:52:05;25.65;;;12.57;;
14052;SDS011;7101;51.600;7.310;2024-03-08T03:54:32;23.40;;;12.75;;
14052;SDS011;7101;51.600;7.310;2024-03-08T03:56:59;26.75;;;13.05;;
14052;SDS011;7101;51.600;7.310;2024-03-08T03:59:26;27.88;;;11.88;;
14052;SDS011;7101;51.600;7.310;2024-03-08T04:01:53;28.70;;;12.75;;
14052;SDS011;7101;51.600;7.310;2024-03-08T04:04:21;27.40;;;12.55;;
14052;SDS011;7101;51.600;7.310;2024-03-08T04:06:49;25.42;;;12.93;;
14052;SDS011;7101;51.600;7.310;2024-03-08T04:09:16;25.13;;;12.38;;
14052;SDS011;7101;51.600;7.310;2024-03-08T04:11:44;26.30;;;12.60;;
14052;SDS011;7101;51.600;7.310;2024-03-08T04:14:11;26.88;;;12.43;;
14052;SDS011;7101;51.600;7.310;2024-03-08T04:16:38;27.45;;;12.48;;
14052;SDS011;7101;51.600;7.310;2024-03-08T04:19:05;25.45;;;12.85;;
14052;SDS011;7101;51.600;7.310;2024-03-08T04:21:33;25.42;;;12.88;;
14052;SDS011;7101;51.600;7.310;2024-03-08T04:24:00;30.73;;;13.75;;
14052;SDS011;7101;51.600;7.310;2024-03-08T04:26:27;29.55;;;13.85;;
14052;SDS011;7101;51.600;7.310;2024-03-08T04:28:53;25.63;;;12.82;;
14052;SDS011;7101;51.600;7.310;2024-03-08T04:31:20;28.40;;;12.77;;
14052;SDS011;7101;51.600;7.310;2024-03-08T04:33:47;28.98;;;13.02;;
14052;SDS011;7101;51.600;7.310;2024-03-08T04:36:14;27.92;;;13.15;;
14052;SDS011;7101;51.600;7.310;2024-03-08T04:38:42;27.63;;;13.48;;
14052;SDS011;7101;51.600;7.310;2024-03-08T04:41:09;26.48;;;13.35;;
14052;SDS011;7101;51.600;7.310;2024-03-08T04:43:36;32.40;;;14.73;;
14052;SDS011;7101;51.600;7.310;2024-03-08T04:46:03;26.83;;;13.35;;
14052;SDS011;7101;51.600;7.310;2024-03-08T04:48:30;27.35;;;13.38;;
14052;SDS011;7101;51.600;7.310;2024-03-08T04:50:57;27.13;;;12.80;;
14052;SDS011;7101;51.600;7.310;2024-03-08T04:53:25;28.88;;;12.50;;
14052;SDS011;7101;51.600;7.310;2024-03-08T04:55:53;29.90;;;13.15;;
14052;SDS011;7101;51.600;7.310;2024-03-08T04:58:20;26.55;;;13.02;;
14052;SDS011;7101;51.600;7.310;2024-03-08T05:00:47;24.88;;;11.43;;
14052;SDS011;7101;51.600;7.310;2024-03-08T05:03:13;24.40;;;13.18;;
14052;SDS011;7101;51.600;7.310;2024-03-08T05:05:40;25.70;;;12.77;;
14052;SDS011;7101;51.600;7.310;2024-03-08T05:08:07;27.13;;;12.25;;
14052;SDS011;7101;51.600;7.310;2024-03-08T05:10:34;25.92;;;12.73;;
14052;SDS011;7101;51.600;7.310;2024-03-08T05:13:02;27.70;;;13.20;;
14052;SDS011;7101;51.600;7.310;2024-03-08T05:15:29;25.60;;;12.35;;
14052;SDS011;7101;51.600;7.310;2024-03-08T05:18:00;32.30;;;13.82;;
14052;SDS011;7101;51.600;7.310;2024-03-08T05:20:26;26.02;;;13.40;;
14052;SDS011;7101;51.600;7.310;2024-03-08T05:22:53;25.95;;;13.65;;
14052;SDS011;7101;51.600;7.310;2024-03-08T05:25:20;23.77;;;13.02;;
14052;SDS011;7101;51.600;7.310;2024-03-08T05:27:47;29.77;;;13.73;;
14052;SDS011;7101;51.600;7.310;2024-03-08T05:30:15;25.23;;;13.90;;
14052;SDS011;7101;51.600;7.310;2024-03-08T05:32:42;29.45;;;13.73;;
14052;SDS011;7101;51.600;7.310;2024-03-08T05:35:10;26.55;;;13.27;;
14052;SDS011;7101;51.600;7.310;2024-03-08T05:37:37;24.48;;;13.05;;
14052;SDS011;7101;51.600;7.310;2024-03-08T05:40:05;30.15;;;13.43;;
14052;SDS011;7101;51.600;7.310;2024-03-08T05:42:34;23.27;;;12.40;;
14052;SDS011;7101;51.600;7.310;2024-03-08T05:45:02;23.33;;;13.15;;
14052;SDS011;7101;51.600;7.310;2024-03-08T05:47:30;30.67;;;12.80;;
14052;SDS011;7101;51.600;7.310;2024-03-08T05:49:57;25.88;;;13.55;;
14052;SDS011;7101;51.600;7.310;2024-03-08T05:52:24;25.50;;;13.48;;
14052;SDS011;7101;51.600;7.310;2024-03-08T05:54:52;28.70;;;14.30;;
14052;SDS011;7101;51.600;7.310;2024-03-08T05:57:18;28.30;;;13.77;;
14052;SDS011;7101;51.600;7.310;2024-03-08T05:59:47;25.48;;;13.13;;
14052;SDS011;7101;51.600;7.310;2024-03-08T06:02:14;29.40;;;14.35;;
14052;SDS011;7101;51.600;7.310;2024-03-08T06:04:45;24.13;;;12.50;;
14052;SDS011;7101;51.600;7.310;2024-03-08T06:07:13;28.98;;;14.07;;
14052;SDS011;7101;51.600;7.310;2024-03-08T06:09:39;28.55;;;14.57;;
14052;SDS011;7101;51.600;7.310;2024-03-08T06:12:10;30.02;;;14.60;;
14052;SDS011;7101;51.600;7.310;2024-03-08T06:14:37;28.38;;;13.38;;
14052;SDS011;7101;51.600;7.310;2024-03-08T06:17:04;33.45;;;14.70;;
14052;SDS011;7101;51.600;7.310;2024-03-08T06:19:32;37.00;;;14.80;;
14052;SDS011;7101;51.600;7.310;2024-03-08T06:22:00;30.45;;;13.93;;
14052;SDS011;7101;51.600;7.310;2024-03-08T06:24:30;27.60;;;13.45;;
14052;SDS011;7101;51.600;7.310;2024-03-08T06:26:57;25.45;;;12.95;;
14052;SDS011;7101;51.600;7.310;2024-03-08T06:29:24;31.10;;;14.05;;
14052;SDS011;7101;51.600;7.310;2024-03-08T06:31:51;26.83;;;14.15;;
14052;SDS011;7101;51.600;7.310;2024-03-08T06:34:18;28.63;;;14.05;;
14052;SDS011;7101;51.600;7.310;2024-03-08T06:36:45;31.23;;;14.93;;
14052;SDS011;7101;51.600;7.310;2024-03-08T06:39:13;28.73;;;13.80;;
14052;SDS011;7101;51.600;7.310;2024-03-08T06:41:40;35.00;;;14.90;;
14052;SDS011;7101;51.600;7.310;2024-03-08T06:44:09;31.88;;;15.63;;
14052;SDS011;7101;51.600;7.310;2024-03-08T06:46:36;33.10;;;14.75;;
14052;SDS011;7101;51.600;7.310;2024-03-08T06:49:03;29.92;;;14.77;;
14052;SDS011;7101;51.600;7.310;2024-03-08T06:51:30;28.73;;;14.73;;
14052;SDS011;7101;51.600;7.310;2024-03-08T06:53:57;29.73;;;14.38;;
14052;SDS011;7101;51.600;7.310;2024-03-08T06:56:25;29.55;;;15.60;;
14052;SDS011;7101;51.600;7.310;2024-03-08T06:58:52;31.17;;;15.05;;
14052;SDS011;7101;51.600;7.310;2024-03-08T07:01:20;29.67;;;13.80;;
14052;SDS011;7101;51.600;7.310;2024-03-08T07:03:47;25.38;;;13.45;;
14052;SDS011;7101;51.600;7.310;2024-03-08T07:06:14;32.00;;;14.90;;
14052;SDS011;7101;51.600;7.310;2024-03-08T07:08:44;28.20;;;14.55;;
14052;SDS011;7101;51.600;7.310;2024-03-08T07:11:11;29.80;;;15.10;;
14052;SDS011;7101;51.600;7.310;2024-03-08T07:13:44;28.80;;;14.65;;
14052;SDS011;7101;51.600;7.310;2024-03-08T07:16:11;29.58;;;14.93;;
14052;SDS011;7101;51.600;7.310;2024-03-08T07:18:38;29.40;;;14.70;;
14052;SDS011;7101;51.600;7.310;2024-03-08T07:21:08;28.83;;;15.10;;
14052;SDS011;7101;51.600;7.310;2024-03-08T07:23:35;26.05;;;14.05;;
14052;SDS011;7101;51.600;7.310;2024-03-08T07:26:29;27.60;;;14.57;;
14052;SDS011;7101;51.600;7.310;2024-03-08T07:28:58;29.52;;;15.20;;
14052;SDS011;7101;51.600;7.310;2024-03-08T07:31:25;24.90;;;14.60;;
14052;SDS011;7101;51.600;7.310;2024-03-08T07:34:00;28.45;;;14.73;;
14052;SDS011;7101;51.600;7.310;2024-03-08T07:36:28;25.48;;;14.90;;
14052;SDS011;7101;51.600;7.310;2024-03-08T07:38:55;26.80;;;13.98;;
14052;SDS011;7101;51.600;7.310;2024-03-08T07:41:22;26.88;;;14.10;;
14052;SDS011;7101;51.600;7.310;2024-03-08T07:43:50;27.17;;;14.13;;
14052;SDS011;7101;51.600;7.310;2024-03-08T07:46:18;30.00;;;14.60;;
14052;SDS011;7101;51.600;7.310;2024-03-08T07:48:45;23.83;;;13.88;;
14052;SDS011;7101;51.600;7.310;2024-03-08T07:51:15;28.42;;;13.88;;
14052;SDS011;7101;51.600;7.310;2024-03-08T07:53:43;27.65;;;14.68;;
14052;SDS011;7101;51.600;7.310;2024-03-08T07:56:10;28.35;;;14.88;;
14052;SDS011;7101;51.600;7.310;2024-03-08T07:58:38;27.40;;;14.30;;
14052;SDS011;7101;51.600;7.310;2024-03-08T08:01:08;31.17;;;13.63;;
14052;SDS011;7101;51.600;7.310;2024-03-08T08:03:44;27.98;;;14.68;;
14052;SDS011;7101;51.600;7.310;2024-03-08T08:06:10;28.10;;;14.82;;
14052;SDS011;7101;51.600;7.310;2024-03-08T08:08:40;25.20;;;13.98;;
14052;SDS011;7101;51.600;7.310;2024-03-08T08:11:07;29.20;;;14.55;;
14052;SDS011;7101;51.600;7.310;2024-03-08T08:13:36;24.67;;;13.93;;
14052;SDS011;7101;51.600;7.310;2024-03-08T08:16:04;26.38;;;13.75;;
14052;SDS011;7101;51.600;7.310;2024-03-08T08:18:32;27.83;;;13.60;;
14052;SDS011;7101;51.600;7.310;2024-03-08T08:21:01;25.95;;;13.80;;
14052;SDS011;7101;51.600;7.310;2024-03-08T08:23:30;30.92;;;13.63;;
14052;SDS011;7101;51.600;7.310;2024-03-08T08:25:58;30.25;;;14.35;;
14052;SDS011;7101;51.600;7.310;2024-03-08T08:28:25;27.02;;;13.73;;
14052;SDS011;7101;51.600;7.310;2024-03-08T08:30:51;29.88;;;13.90;;
14052;SDS011;7101;51.600;7.310;2024-03-08T08:33:19;22.42;;;12.93;;
14052;SDS011;7101;51.600;7.310;2024-03-08T08:35:45;27.42;;;13.80;;
14052;SDS011;7101;51.600;7.310;2024-03-08T08:38:14;26.52;;;14.15;;
14052;SDS011;7101;51.600;7.310;2024-03-08T08:40:41;25.70;;;13.50;;
14052;SDS011;7101;51.600;7.310;2024-03-08T08:43:07;25.23;;;13.07;;
14052;SDS011;7101;51.600;7.310;2024-03-08T08:45:34;27.50;;;13.00;;
14052;SDS011;7101;51.600;7.310;2024-03-08T08:48:01;30.98;;;13.85;;
14052;SDS011;7101;51.600;7.310;2024-03-08T08:50:30;24.77;;;13.02;;
14052;SDS011;7101;51.600;7.310;2024-03-08T08:52:57;23.95;;;13.07;;
14052;SDS011;7101;51.600;7.310;2024-03-08T08:55:26;28.65;;;14.38;;
14052;SDS011;7101;51.600;7.310;2024-03-08T08:57:56;30.95;;;15.18;;
14052;SDS011;7101;51.600;7.310;2024-03-08T09:00:23;27.42;;;13.55;;
14052;SDS011;7101;51.600;7.310;2024-03-08T09:02:52;32.88;;;14.65;;
14052;SDS011;7101;51.600;7.310;2024-03-08T09:05:20;27.92;;;13.90;;
14052;SDS011;7101;51.600;7.310;2024-03-08T09:07:49;26.23;;;12.82;;
14052;SDS011;7101;51.600;7.310;2024-03-08T09:10:17;24.77;;;13.80;;
14052;SDS011;7101;51.600;7.310;2024-03-08T09:12:45;27.98;;;14.05;;
14052;SDS011;7101;51.600;7.310;2024-03-08T09:15:12;23.70;;;13.65;;
14052;SDS011;7101;51.600;7.310;2024-03-08T09:17:40;25.65;;;14.43;;
14052;SDS011;7101;51.600;7.310;2024-03-08T09:20:08;25.40;;;13.75;;
14052;SDS011;7101;51.600;7.310;2024-03-08T09:22:39;27.05;;;14.63;;
14052;SDS011;7101;51.600;7.310;2024-03-08T09:25:07;28.40;;;14.18;;
14052;SDS011;7101;51.600;7.310;2024-03-08T09:27:35;28.25;;;15.15;;
14052;SDS011;7101;51.600;7.310;2024-03-08T09:30:03;32.88;;;15.02;;
14052;SDS011;7101;51.600;7.310;2024-03-08T09:32:32;23.27;;;12.80;;
14052;SDS011;7101;51.600;7.310;2024-03-08T09:34:58;26.63;;;13.20;;
14052;SDS011;7101;51.600;7.310;2024-03-08T09:37:26;25.42;;;14.38;;
14052;SDS011;7101;51.600;7.310;2024-03-08T09:39:53;27.23;;;14.20;;
14052;SDS011;7101;51.600;7.310;2024-03-08T09:42:20;27.67;;;14.40;;
14052;SDS011;7101;51.600;7.310;2024-03-08T09:44:48;28.67;;;15.25;;
14052;SDS011;7101;51.600;7.310;2024-03-08T09:47:17;27.90;;;13.85;;
14052;SDS011;7101;51.600;7.310;2024-03-08T09:49:44;29.50;;;13.98;;
14052;SDS011;7101;51.600;7.310;2024-03-08T09:52:11;24.50;;;13.55;;
14052;SDS011;7101;51.600;7.310;2024-03-08T09:54:38;24.58;;;13.27;;
14052;SDS011;7101;51.600;7.310;2024-03-08T09:57:09;28.92;;;14.68;;
14052;SDS011;7101;51.600;7.310;2024-03-08T09:59:37;22.17;;;12.10;;
14052;SDS011;7101;51.600;7.310;2024-03-08T10:02:13;24.05;;;12.65;;
14052;SDS011;7101;51.600;7.310;2024-03-08T10:04:42;24.75;;;12.73;;
14052;SDS011;7101;51.600;7.310;2024-03-08T10:07:11;27.83;;;12.10;;
14052;SDS011;7101;51.600;7.310;2024-03-08T10:09:38;24.65;;;12.43;;
14052;SDS011;7101;51.600;7.310;2024-03-08T10:12:06;23.95;;;12.88;;
14052;SDS011;7101;51.600;7.310;2024-03-08T10:14:35;26.95;;;11.98;;
14052;SDS011;7101;51.600;7.310;2024-03-08T10:17:05;23.77;;;12.82;;
14052;SDS011;7101;51.600;7.310;2024-03-08T10:19:32;22.33;;;11.98;;
14052;SDS011;7101;51.600;7.310;2024-03-08T10:22:00;21.17;;;11.90;;
14052;SDS011;7101;51.600;7.310;2024-03-08T10:24:29;23.25;;;13.23;;
14052;SDS011;7101;51.600;7.310;2024-03-08T10:26:59;25.02;;;12.18;;
14052;SDS011;7101;51.600;7.310;2024-03-08T10:29:28;22.08;;;11.77;;
14052;SDS011;7101;51.600;7.310;2024-03-08T10:31:56;23.10;;;12.10;;
14052;SDS011;7101;51.600;7.310;2024-03-08T10:34:22;24.58;;;13.02;;
14052;SDS011;7101;51.600;7.310;2024-03-08T10:36:50;22.15;;;12.23;;
14052;SDS011;7101;51.600;7.310;2024-03-08T10:39:21;24.10;;;12.20;;
14052;SDS011;7101;51.600;7.310;2024-03-08T10:41:52;22.58;;;12.02;;
14052;SDS011;7101;51.600;7.310;2024-03-08T10:44:29;22.10;;;12.50;;
14052;SDS011;7101;51.600;7.310;2024-03-08T10:47:08;21.10;;;11.63;;
14052;SDS011;7101;51.600;7.310;2024-03-08T10:49:46;21.77;;;12.75;;
14052;SDS011;7101;51.600;7.310;2024-03-08T10:52:17;24.52;;;12.32;;
14052;SDS011;7101;51.600;7.310;2024-03-08T10:54:47;24.77;;;13.70;;
14052;SDS011;7101;51.600;7.310;2024-03-08T10:57:16;23.83;;;12.88;;
14052;SDS011;7101;51.600;7.310;2024-03-08T10:59:44;24.63;;;13.20;;
14052;SDS011;7101;51.600;7.310;2024-03-08T11:02:14;23.05;;;13.00;;
14052;SDS011;7101;51.600;7.310;2024-03-08T11:04:46;24.63;;;12.65;;
14052;SDS011;7101;51.600;7.310;2024-03-08T11:07:14;26.67;;;13.55;;
14052;SDS011;7101;51.600;7.310;2024-03-08T11:09:44;31.35;;;13.75;;
14052;SDS011;7101;51.600;7.310;2024-03-08T11:12:20;24.42;;;12.35;;
14052;SDS011;7101;51.600;7.310;2024-03-08T11:14:47;25.88;;;14.20;;
14052;SDS011;7101;51.600;7.310;2024-03-08T11:17:15;25.98;;;12.50;;
14052;SDS011;7101;51.600;7.310;2024-03-08T11:19:47;24.98;;;12.82;;
14052;SDS011;7101;51.600;7.310;2024-03-08T11:22:20;23.40;;;13.02;;
14052;SDS011;7101;51.600;7.310;2024-03-08T11:24:53;22.88;;;12.23;;
14052;SDS011;7101;51.600;7.310;2024-03-08T11:27:28;21.85;;;12.57;;
14052;SDS011;7101;51.600;7.310;2024-03-08T11:30:02;20.83;;;12.82;;
14052;SDS011;7101;51.600;7.310;2024-03-08T11:32:35;24.30;;;12.65;;
14052;SDS011;7101;51.600;7.310;2024-03-08T11:35:05;22.30;;;12.63;;
14052;SDS011;7101;51.600;7.310;2024-03-08T11:37:33;19.77;;;12.57;;
14052;SDS011;7101;51.600;7.310;2024-03-08T11:40:05;20.90;;;11.68;;
14052;SDS011;7101;51.600;7.310;2024-03-08T11:42:43;21.92;;;11.55;;
14052;SDS011;7101;51.600;7.310;2024-03-08T11:45:11;22.48;;;12.77;;
14052;SDS011;7101;51.600;7.310;2024-03-08T11:47:38;21.55;;;12.02;;
14052;SDS011;7101;51.600;7.310;2024-03-08T11:50:09;25.00;;;11.30;;
14052;SDS011;7101;51.600;7.310;2024-03-08T11:52:37;22.95;;;11.90;;
14052;SDS011;7101;51.600;7.310;2024-03-08T11:55:06;20.52;;;11.55;;
14052;SDS011;7101;51.600;7.310;2024-03-08T11:57:33;22.05;;;11.18;;
14052;SDS011;7101;51.600;7.310;2024-03-08T12:00:00;26.30;;;12.35;;
14052;SDS011;7101;51.600;7.310;2024-03-08T12:02:31;19.02;;;11.70;;
14052;SDS011;7101;51.600;7.310;2024-03-08T12:05:00;21.58;;;11.23;;
14052;SDS011;7101;51.600;7.310;2024-03-08T12:07:28;21.33;;;11.18;;
14052;SDS011;7101;51.600;7.310;2024-03-08T12:10:17;18.85;;;10.85;;
14052;SDS011;7101;51.600;7.310;2024-03-08T12:12:46;21.38;;;11.45;;
14052;SDS011;7101;51.600;7.310;2024-03-08T12:15:16;17.42;;;10.18;;
14052;SDS011;7101;51.600;7.310;2024-03-08T12:17:44;17.35;;;10.18;;
14052;SDS011;7101;51.600;7.310;2024-03-08T12:20:14;20.77;;;10.73;;
14052;SDS011;7101;51.600;7.310;2024-03-08T12:22:42;21.88;;;10.98;;
14052;SDS011;7101;51.600;7.310;2024-03-08T12:25:09;17.48;;;10.00;;
14052;SDS011;7101;51.600;7.310;2024-03-08T12:27:39;16.77;;;9.70;;
14052;SDS011;7101;51.600;7.310;2024-03-08T12:30:20;18.27;;;9.82;;
14052;SDS011;7101;51.600;7.310;2024-03-08T12:32:49;15.73;;;9.55;;
14052;SDS011;7101;51.600;7.310;2024-03-08T12:35:18;16.88;;;8.70;;
14052;SDS011;7101;51.600;7.310;2024-03-08T12:37:48;16.35;;;8.65;;
14052;SDS011;7101;51.600;7.310;2024-03-08T12:40:17;28.30;;;8.98;;
14052;SDS011;7101;51.600;7.310;2024-03-08T12:42:45;16.38;;;8.40;;
14052;SDS011;7101;51.600;7.310;2024-03-08T12:45:13;15.88;;;8.18;;
14052;SDS011;7101;51.600;7.310;2024-03-08T12:47:43;14.48;;;8.00;;
14052;SDS011;7101;51.600;7.310;2024-03-08T12:50:10;10.98;;;7.10;;
14052;SDS011;7101;51.600;7.310;2024-03-08T12:52:37;16.05;;;8.80;;
14052;SDS011;7101;51.600;7.310;2024-03-08T12:55:04;13.90;;;7.82;;
14052;SDS011;7101;51.600;7.310;2024-03-08T12:57:33;14.23;;;8.02;;
14052;SDS011;7101;51.600;7.310;2024-03-08T13:00:04;17.67;;;7.25;;
14052;SDS011;7101;51.600;7.310;2024-03-08T13:02:38;14.45;;;7.90;;
14052;SDS011;7101;51.600;7.310;2024-03-08T13:05:05;16.58;;;7.38;;
14052;SDS011;7101;51.600;7.310;2024-03-08T13:07:34;14.38;;;8.15;;
14052;SDS011;7101;51.600;7.310;2024-03-08T13:10:04;14.32;;;8.65;;
14052;SDS011;7101;51.600;7.310;2024-03-08T13:12:32;14.80;;;8.30;;
14052;SDS011;7101;51.600;7.310;2024-03-08T13:15:04;13.43;;;8.05;;
14052;SDS011;7101;51.600;7.310;2024-03-08T13:17:31;17.95;;;8.20;;
14052;SDS011;7101;51.600;7.310;2024-03-08T13:19:58;16.05;;;9.15;;
14052;SDS011;7101;51.600;7.310;2024-03-08T13:22:25;11.43;;;7.88;;
14052;SDS011;7101;51.600;7.310;2024-03-08T13:24:53;13.73;;;8.18;;
14052;SDS011;7101;51.600;7.310;2024-03-08T13:27:19;14.63;;;9.00;;
14052;SDS011;7101;51.600;7.310;2024-03-08T13:29:47;14.80;;;8.70;;
14052;SDS011;7101;51.600;7.310;2024-03-08T13:32:16;14.02;;;8.52;;
14052;SDS011;7101;51.600;7.310;2024-03-08T13:34:45;13.73;;;8.02;;
14052;SDS011;7101;51.600;7.310;2024-03-08T13:37:13;14.70;;;7.85;;
14052;SDS011;7101;51.600;7.310;2024-03-08T13:39:41;14.05;;;9.10;;
14052;SDS011;7101;51.600;7.310;2024-03-08T13:42:09;13.18;;;7.80;;
14052;SDS011;7101;51.600;7.310;2024-03-08T13:44:38;14.85;;;8.80;;
14052;SDS011;7101;51.600;7.310;2024-03-08T13:47:09;14.23;;;7.88;;
14052;SDS011;7101;51.600;7.310;2024-03-08T13:49:38;14.73;;;8.45;;
14052;SDS011;7101;51.600;7.310;2024-03-08T13:52:05;14.05;;;8.13;;
14052;SDS011;7101;51.600;7.310;2024-03-08T13:54:33;14.15;;;8.57;;
14052;SDS011;7101;51.600;7.310;2024-03-08T13:57:00;13.05;;;7.88;;
14052;SDS011;7101;51.600;7.310;2024-03-08T13:59:28;14.73;;;8.80;;
14052;SDS011;7101;51.600;7.310;2024-03-08T14:01:55;15.48;;;9.23;;
14052;SDS011;7101;51.600;7.310;2024-03-08T14:04:24;21.02;;;9.57;;
14052;SDS011;7101;51.600;7.310;2024-03-08T14:06:53;15.40;;;9.18;;
14052;SDS011;7101;51.600;7.310;2024-03-08T14:09:23;14.75;;;9.07;;
14052;SDS011;7101;51.600;7.310;2024-03-08T14:11:50;18.67;;;9.88;;
14052;SDS011;7101;51.600;7.310;2024-03-08T14:14:19;16.25;;;9.25;;
14052;SDS011;7101;51.600;7.310;2024-03-08T14:16:48;15.15;;;9.52;;
14052;SDS011;7101;51.600;7.310;2024-03-08T14:19:17;22.10;;;11.30;;
14052;SDS011;7101;51.600;7.310;2024-03-08T14:21:44;20.02;;;10.95;;
14052;SDS011;7101;51.600;7.310;2024-03-08T14:24:14;20.83;;;10.70;;
14052;SDS011;7101;51.600;7.310;2024-03-08T14:26:41;21.42;;;11.20;;
14052;SDS011;7101;51.600;7.310;2024-03-08T14:29:08;17.88;;;10.50;;
14052;SDS011;7101;51.600;7.310;2024-03-08T14:31:36;18.35;;;10.95;;
14052;SDS011;7101;51.600;7.310;2024-03-08T14:34:03;17.50;;;10.85;;
14052;SDS011;7101;51.600;7.310;2024-03-08T14:36:30;20.15;;;10.18;;
14052;SDS011;7101;51.600;7.310;2024-03-08T14:38:57;21.20;;;10.68;;
14052;SDS011;7101;51.600;7.310;2024-03-08T14:41:25;21.50;;;11.32;;